Time;durP1;ratioP1;P1;durP2;ratioP2;P2;SDS_P1;SDS_P2;PMS_P1;PMS_P2;Temp;Humidity;BMP_temperature;BMP_pressure;BME280_temperature;BME280_humidity;BME280_pressure;Samples;Min_cycle;Max_cycle;Signal;HPM_P1;HPM_P2
2021/03/29 00:01:35;;;;;;;;;;;;;;;5.00;73.62;102589.23;1797276;80;20193;-77
2021/03/29 00:04:03;;;;;;;;;;;;;;;4.98;73.45;102585.38;1797014;80;20230;-77
2021/03/29 00:06:32;;;;;;;;;;;;;;;4.96;73.45;102585.84;1798600;79;20500;-79
2021/03/29 00:09:01;;;;;;;;;;;;;;;4.91;73.41;102590.20;1798533;80;20527;-76
2021/03/29 00:11:30;;;;;;;;;;;;;;;4.89;73.36;102588.06;1797328;80;20149;-79
2021/03/29 00:14:00;;;;;;;;;;;;;;;4.88;73.30;102588.95;1796922;80;20327;-76
2021/03/29 00:16:29;;;;;;;;;;;;;;;4.87;73.26;102592.38;1797065;80;20229;-79
2021/03/29 00:18:58;;;;;;;;;;;;;;;4.87;73.22;102588.52;1797323;80;20319;-75
2021/03/29 00:21:25;;;;;;;;;;;;;;;4.89;72.92;102591.92;1797396;80;22121;-75
2021/03/29 00:23:55;;;;;;;;;;;;;;;4.92;72.61;102584.59;1797131;80;20637;-76
2021/03/29 00:26:24;;;;;;;;;;;;;;;4.91;72.38;102579.05;1797237;80;20183;-75
2021/03/29 00:28:53;;;;;;;;;;;;;;;4.85;72.28;102570.13;1756217;78;20147;-76
2021/03/29 00:31:23;;;;;;;;;;;;;;;4.88;72.01;102573.52;1784228;80;20194;-75
2021/03/29 00:33:52;;;;;;;;;;;;;;;4.92;71.70;102576.45;1761098;81;22128;-75
2021/03/29 00:36:23;;;;;;;;;;;;;;;4.96;71.14;102575.55;1776952;80;20203;-75
2021/03/29 00:38:52;;;;;;;;;;;;;;;4.97;70.89;102574.69;1761063;81;20167;-74
2021/03/29 00:41:20;;;;;;;;;;;;;;;4.97;70.77;102577.69;1776828;80;20666;-76
2021/03/29 00:43:50;;;;;;;;;;;;;;;4.93;70.76;102575.59;1761121;81;20638;-75
2021/03/29 00:46:18;;;;;;;;;;;;;;;4.92;70.62;102575.59;1777835;80;21201;-76
2021/03/29 00:48:49;;;;;;;;;;;;;;;4.89;70.25;102576.48;1762574;81;20112;-76
2021/03/29 00:51:24;;;;;;;;;;;;;;;4.92;69.48;102579.45;1776890;80;20152;-77
2021/03/29 00:53:57;;;;;;;;;;;;;;;5.01;68.67;102579.36;1761146;81;20238;-77
2021/03/29 00:56:24;;;;;;;;;;;;;;;5.10;67.15;102577.52;1777229;80;20611;-75
2021/03/29 00:58:52;;;;;;;;;;;;;;;5.23;66.84;102577.75;1788531;80;21206;-78
2021/03/29 01:01:23;;;;;;;;;;;;;;;5.25;66.73;102582.89;1753898;80;20235;-76
2021/03/29 01:03:55;;;;;;;;;;;;;;;5.26;66.41;102585.43;1783374;80;20602;-76
2021/03/29 01:06:26;;;;;;;;;;;;;;;5.26;66.07;102581.56;1783363;80;20250;-75
2021/03/29 01:08:57;;;;;;;;;;;;;;;5.27;65.96;102583.28;1783127;80;20250;-76
2021/03/29 01:11:27;;;;;;;;;;;;;;;5.25;65.84;102584.18;1783424;80;21250;-76
2021/03/29 01:14:06;;;;;;;;;;;;;;;5.18;65.88;102579.55;1783407;80;20493;-75
2021/03/29 01:16:37;;;;;;;;;;;;;;;5.14;66.08;102575.73;1783297;80;20226;-76
2021/03/29 01:19:08;;;;;;;;;;;;;;;5.13;66.41;102572.77;1783240;80;20241;-79
2021/03/29 01:21:55;;;;;;;;;;;;;;;5.15;66.14;102568.44;1783436;80;20297;-76
2021/03/29 01:24:27;;;;;;;;;;;;;;;5.12;66.16;102582.20;1783308;80;21148;-76
2021/03/29 01:26:54;;;;;;;;;;;;;;;5.09;65.96;102568.52;1784208;80;20207;-76
2021/03/29 01:29:30;;;;;;;;;;;;;;;5.09;66.05;102571.09;1794396;79;20213;-75
2021/03/29 01:31:52;;;;;;;;;;;;;;;5.08;66.10;102574.09;1793653;78;20488;-75
2021/03/29 01:34:20;;;;;;;;;;;;;;;5.04;66.05;102581.44;1792835;80;20167;-78
2021/03/29 01:36:48;;;;;;;;;;;;;;;5.02;65.60;102572.89;1793010;80;22219;-78
2021/03/29 01:39:16;;;;;;;;;;;;;;;5.04;65.53;102580.15;1793202;80;20289;-74
2021/03/29 01:41:43;;;;;;;;;;;;;;;5.08;65.13;102582.25;1793109;80;20139;-72
2021/03/29 01:44:11;;;;;;;;;;;;;;;5.08;65.00;102581.82;1793138;80;20657;-74
2021/03/29 01:46:39;;;;;;;;;;;;;;;5.04;65.04;102574.17;1792920;80;20131;-75
2021/03/29 01:49:08;;;;;;;;;;;;;;;4.98;65.16;102581.98;1792963;80;21331;-75
2021/03/29 01:51:35;;;;;;;;;;;;;;;4.94;65.21;102581.16;1792970;80;20150;-74
2021/03/29 01:54:03;;;;;;;;;;;;;;;4.89;65.16;102580.77;1792932;80;20190;-75
2021/03/29 01:56:31;;;;;;;;;;;;;;;4.86;65.10;102579.09;1765119;80;20214;-75
2021/03/29 01:58:59;;;;;;;;;;;;;;;4.84;65.09;102575.70;1793064;80;20218;-74
2021/03/29 02:01:26;;;;;;;;;;;;;;;4.83;65.12;102575.27;1792744;80;22324;-74
2021/03/29 02:03:55;;;;;;;;;;;;;;;4.83;65.05;102574.42;1792826;80;20243;-75
2021/03/29 02:06:22;;;;;;;;;;;;;;;4.78;65.23;102565.48;1793633;80;20206;-74
2021/03/29 02:08:51;;;;;;;;;;;;;;;4.73;65.41;102570.67;1796103;80;20548;-75
2021/03/29 02:11:19;;;;;;;;;;;;;;;4.69;65.59;102567.71;1819090;78;20575;-76
2021/03/29 02:13:48;;;;;;;;;;;;;;;4.64;65.85;102564.35;1792887;80;21195;-75
2021/03/29 02:16:16;;;;;;;;;;;;;;;4.65;65.97;102560.06;1792991;80;20289;-75
2021/03/29 02:18:46;;;;;;;;;;;;;;;4.70;65.85;102561.70;1793135;80;20146;-75
2021/03/29 02:21:18;;;;;;;;;;;;;;;4.78;65.60;102562.48;1793128;80;20617;-78
2021/03/29 02:23:50;;;;;;;;;;;;;;;4.84;65.40;102558.13;1792960;80;20311;-80
2021/03/29 02:26:20;;;;;;;;;;;;;;;4.89;65.30;102558.91;1793301;80;21190;-76
2021/03/29 02:28:49;;;;;;;;;;;;;;;4.93;65.19;102558.01;1792954;80;20576;-77
2021/03/29 02:31:16;;;;;;;;;;;;;;;4.92;65.22;102552.44;1793770;80;20151;-74
2021/03/29 02:33:46;;;;;;;;;;;;;;;4.90;65.29;102553.76;1793793;80;20222;-74
2021/03/29 02:36:13;;;;;;;;;;;;;;;4.88;65.43;102554.66;1767934;80;20226;-77
2021/03/29 02:38:52;;;;;;;;;;;;;;;4.85;65.43;102552.13;1760946;80;20217;-72
2021/03/29 02:41:25;;;;;;;;;;;;;;;4.86;65.41;102555.09;1793312;80;20222;-75
2021/03/29 02:43:53;;;;;;;;;;;;;;;4.86;65.20;102548.66;1793550;78;20158;-75
2021/03/29 02:46:26;;;;;;;;;;;;;;;4.88;64.95;102540.08;1793967;80;20218;-77
2021/03/29 02:48:54;;;;;;;;;;;;;;;4.89;64.88;102540.47;1795442;80;20131;-76
2021/03/29 02:51:22;;;;;;;;;;;;;;;4.85;65.00;102532.37;1794018;80;21187;-78
2021/03/29 02:53:56;;;;;;;;;;;;;;;4.79;65.09;102523.45;1793337;80;20131;-73
2021/03/29 02:56:29;;;;;;;;;;;;;;;4.76;65.30;102535.06;1793422;80;20309;-74
2021/03/29 02:59:01;;;;;;;;;;;;;;;4.69;65.41;102538.14;1793390;80;20234;-75
2021/03/29 03:01:30;;;;;;;;;;;;;;;4.62;65.66;102540.82;1793676;80;20154;-79
2021/03/29 03:03:58;;;;;;;;;;;;;;;4.60;65.72;102538.25;1794102;80;21161;-78
2021/03/29 03:06:29;;;;;;;;;;;;;;;4.64;65.34;102530.06;1793655;80;20544;-76
2021/03/29 03:08:59;;;;;;;;;;;;;;;4.71;64.84;102535.13;1793594;80;20273;-79
2021/03/29 03:11:28;;;;;;;;;;;;;;;4.81;64.60;102535.88;1793676;80;20139;-76
2021/03/29 03:13:55;;;;;;;;;;;;;;;4.92;63.99;102538.29;1793738;80;20230;-77
2021/03/29 03:16:23;;;;;;;;;;;;;;;5.00;63.94;102533.91;1793800;80;22186;-75
2021/03/29 03:18:51;;;;;;;;;;;;;;;4.98;63.74;102524.91;1793696;80;20238;-79
2021/03/29 03:21:19;;;;;;;;;;;;;;;5.02;63.71;102535.59;1794036;80;20242;-77
2021/03/29 03:23:57;;;;;;;;;;;;;;;5.03;63.64;102531.30;1793710;80;20624;-78
2021/03/29 03:26:26;;;;;;;;;;;;;;;5.01;63.75;102535.63;1794124;80;20171;-78
2021/03/29 03:28:54;;;;;;;;;;;;;;;4.96;63.96;102540.81;1794543;79;22120;-78
2021/03/29 03:31:22;;;;;;;;;;;;;;;4.95;63.94;102533.10;1793716;80;20272;-79
2021/03/29 03:33:51;;;;;;;;;;;;;;;4.98;63.56;102530.52;1793975;80;20305;-78
2021/03/29 03:36:22;;;;;;;;;;;;;;;5.06;63.32;102536.41;1793918;80;20477;-75
2021/03/29 03:38:51;;;;;;;;;;;;;;;5.08;63.25;102530.36;1793668;80;20218;-79
2021/03/29 03:41:30;;;;;;;;;;;;;;;5.10;63.03;102530.35;1793889;80;21191;-76
2021/03/29 03:43:59;;;;;;;;;;;;;;;5.09;63.15;102528.64;1793702;80;20500;-74
2021/03/29 03:46:29;;;;;;;;;;;;;;;5.04;63.33;102533.83;1793871;80;20500;-78
2021/03/29 03:48:58;;;;;;;;;;;;;;;5.01;63.49;102536.91;1793472;80;20222;-77
2021/03/29 03:51:26;;;;;;;;;;;;;;;4.97;63.83;102537.81;1793831;80;20477;-76
2021/03/29 03:53:54;;;;;;;;;;;;;;;4.90;64.21;102540.89;1793765;80;21194;-83
2021/03/29 03:56:21;;;;;;;;;;;;;;;4.86;64.56;102534.08;1793608;80;20150;-80
2021/03/29 03:58:49;;;;;;;;;;;;;;;4.86;64.69;102544.37;1793646;80;20167;-76
2021/03/29 04:01:17;;;;;;;;;;;;;;;4.86;64.62;102536.66;1793612;80;20146;-75
2021/03/29 04:03:44;;;;;;;;;;;;;;;4.85;64.71;102541.83;1793667;80;20214;-76
2021/03/29 04:06:12;;;;;;;;;;;;;;;4.86;64.70;102540.94;1794431;80;21266;-75
2021/03/29 04:08:44;;;;;;;;;;;;;;;4.88;64.80;102546.51;1795059;80;20198;-77
2021/03/29 04:11:12;;;;;;;;;;;;;;;4.87;64.96;102547.80;1793757;80;20190;-77
2021/03/29 04:13:40;;;;;;;;;;;;;;;4.88;65.02;102540.51;1793589;80;20249;-77
2021/03/29 04:16:09;;;;;;;;;;;;;;;4.88;64.91;102534.94;1793451;80;20226;-78
2021/03/29 04:18:38;;;;;;;;;;;;;;;4.88;64.98;102538.80;1793454;80;20155;-79
2021/03/29 04:21:08;;;;;;;;;;;;;;;4.88;65.13;102541.36;1793461;80;20596;-78
2021/03/29 04:23:36;;;;;;;;;;;;;;;4.87;65.29;102549.09;1793597;80;20611;-74
2021/03/29 04:26:05;;;;;;;;;;;;;;;4.89;65.35;102540.90;1793465;80;20290;-77
2021/03/29 04:28:33;;;;;;;;;;;;;;;4.88;65.44;102531.50;1793354;80;20529;-74
2021/03/29 04:31:00;;;;;;;;;;;;;;;4.85;65.55;102536.23;1793596;80;21192;-79
2021/03/29 04:33:28;;;;;;;;;;;;;;;4.84;65.82;102535.83;1793581;80;20174;-78
2021/03/29 04:35:56;;;;;;;;;;;;;;;4.85;65.40;102536.69;1793935;80;20195;-74
2021/03/29 04:38:23;;;;;;;;;;;;;;;4.96;64.35;102533.53;1793582;80;20142;-79
2021/03/29 04:40:52;;;;;;;;;;;;;;;5.16;63.25;102531.12;1793695;80;20277;-76
2021/03/29 04:43:20;;;;;;;;;;;;;;;5.33;62.85;102527.84;1793731;80;22201;-78
2021/03/29 04:45:49;;;;;;;;;;;;;;;5.43;62.45;102525.98;1794237;80;20210;-77
2021/03/29 04:48:16;;;;;;;;;;;;;;;5.50;62.24;102525.02;1795127;80;20111;-77
2021/03/29 04:50:44;;;;;;;;;;;;;;;5.52;62.25;102523.73;1793716;80;20230;-78
2021/03/29 04:53:12;;;;;;;;;;;;;;;5.53;61.93;102518.97;1793798;80;20353;-83
2021/03/29 04:55:41;;;;;;;;;;;;;;;5.55;61.53;102523.69;1793462;80;20340;-82
2021/03/29 04:58:10;;;;;;;;;;;;;;;5.58;61.13;102510.33;1793552;80;20222;-76
2021/03/29 05:00:38;;;;;;;;;;;;;;;5.63;60.69;102511.09;1793592;80;20293;-78
2021/03/29 05:03:05;;;;;;;;;;;;;;;5.68;60.66;102518.75;1793515;80;20274;-78
2021/03/29 05:05:34;;;;;;;;;;;;;;;5.69;60.34;102520.00;1793917;80;20234;-79
2021/03/29 05:08:02;;;;;;;;;;;;;;;5.72;59.86;102518.66;1794134;79;21276;-79
2021/03/29 05:10:29;;;;;;;;;;;;;;;5.77;59.83;102518.59;1793656;80;20483;-78
2021/03/29 05:12:57;;;;;;;;;;;;;;;5.81;59.87;102513.78;1793827;80;20269;-77
2021/03/29 05:15:26;;;;;;;;;;;;;;;5.85;59.76;102521.48;1793837;80;20158;-79
2021/03/29 05:17:54;;;;;;;;;;;;;;;5.90;59.34;102521.84;1793750;80;20226;-80
2021/03/29 05:20:23;;;;;;;;;;;;;;;5.94;58.85;102529.48;1793776;80;20504;-79
2021/03/29 05:22:52;;;;;;;;;;;;;;;5.97;59.11;102525.56;1793645;79;20190;-75
2021/03/29 05:25:20;;;;;;;;;;;;;;;6.00;59.18;102520.82;1794563;80;20155;-77
2021/03/29 05:27:48;;;;;;;;;;;;;;;6.03;59.19;102534.94;1794994;80;20834;-77
2021/03/29 05:30:17;;;;;;;;;;;;;;;6.06;58.81;102531.02;1793354;80;20276;-76
2021/03/29 05:32:45;;;;;;;;;;;;;;;6.08;58.73;102527.53;1792990;80;21430;-75
2021/03/29 05:35:12;;;;;;;;;;;;;;;6.13;58.73;102531.30;1793215;80;20210;-76
2021/03/29 05:37:40;;;;;;;;;;;;;;;6.18;58.42;102537.23;1793274;79;20131;-77
2021/03/29 05:40:10;;;;;;;;;;;;;;;6.21;58.05;102529.02;1793612;79;20142;-77
2021/03/29 05:42:38;;;;;;;;;;;;;;;6.26;58.15;102534.06;1793199;80;20222;-75
2021/03/29 05:45:09;;;;;;;;;;;;;;;6.29;57.97;102525.84;1793163;79;21257;-76
2021/03/29 05:47:38;;;;;;;;;;;;;;;6.36;57.98;102529.16;1793191;80;20238;-77
2021/03/29 05:50:08;;;;;;;;;;;;;;;6.41;57.45;102531.66;1793221;79;20238;-76
2021/03/29 05:52:35;;;;;;;;;;;;;;;6.46;57.08;102525.96;1793267;80;20158;-75
2021/03/29 05:55:09;;;;;;;;;;;;;;;6.54;56.87;102535.70;1793008;79;20198;-76
2021/03/29 05:58:32;;;;;;;;;;;;;;;6.61;56.10;102523.92;1778026;79;21145;-76
2021/03/29 06:00:32;;;;;;;;;;;;;;;6.68;55.82;102533.69;1780619;78;20284;-78
2021/03/29 06:03:23;;;;;;;;;;;;;;;6.77;55.70;102530.91;1785177;79;20348;-77
2021/03/29 06:05:56;;;;;;;;;;;;;;;6.86;55.39;102534.16;1793301;79;20205;-76
2021/03/29 06:08:25;;;;;;;;;;;;;;;6.94;55.33;102527.55;1793411;79;20215;-82
2021/03/29 06:10:57;;;;;;;;;;;;;;;6.99;54.67;102527.47;1799606;79;21188;-75
2021/03/29 06:13:31;;;;;;;;;;;;;;;7.05;54.49;102534.61;1798734;79;20300;-82
2021/03/29 06:16:10;;;;;;;;;;;;;;;7.16;54.26;102527.93;1777953;79;20614;-82
2021/03/29 06:18:46;;;;;;;;;;;;;;;7.24;54.26;102520.88;1797661;78;20149;-78
2021/03/29 06:21:15;;;;;;;;;;;;;;;7.32;53.17;102530.58;1792729;79;20309;-80
2021/03/29 06:23:58;;;;;;;;;;;;;;;7.38;53.32;102557.12;1779151;79;22411;-80
2021/03/29 06:26:31;;;;;;;;;;;;;;;7.44;52.97;102525.13;1781957;79;20297;-76
2021/03/29 06:28:59;;;;;;;;;;;;;;;7.52;52.29;102537.88;1793550;79;20296;-77
2021/03/29 06:31:32;;;;;;;;;;;;;;;7.54;51.62;102516.28;1801071;79;20329;-76
2021/03/29 06:34:01;;;;;;;;;;;;;;;7.60;51.29;102505.79;1792279;79;20222;-76
2021/03/29 06:36:35;;;;;;;;;;;;;;;7.64;51.33;102515.17;1793492;79;22202;-81
2021/03/29 06:39:16;;;;;;;;;;;;;;;7.70;50.73;102518.05;1790646;79;20309;-76
2021/03/29 06:41:54;;;;;;;;;;;;;;;7.76;50.45;102520.47;1790826;79;20198;-78
2021/03/29 06:44:31;;;;;;;;;;;;;;;7.80;51.06;102518.23;1790323;80;20243;-80
2021/03/29 06:47:14;;;;;;;;;;;;;;;7.88;50.62;102500.81;1790995;79;20285;-75
2021/03/29 06:49:46;;;;;;;;;;;;;;;7.96;49.87;102513.93;1789772;80;21407;-78
2021/03/29 06:52:31;;;;;;;;;;;;;;;8.00;49.33;102513.41;1790460;79;20305;-80
2021/03/29 06:55:21;;;;;;;;;;;;;;;8.02;49.44;102497.41;1790236;80;20559;-79
2021/03/29 06:58:04;;;;;;;;;;;;;;;8.06;49.28;102496.44;1790514;79;20223;-81
2021/03/29 07:00:37;;;;;;;;;;;;;;;8.13;49.34;102503.59;1790080;79;20282;-80
2021/03/29 07:03:07;;;;;;;;;;;;;;;8.18;48.87;102498.70;1789937;79;21189;-78
2021/03/29 07:05:37;;;;;;;;;;;;;;;8.21;48.65;102508.95;1789755;79;20273;-76
2021/03/29 07:08:06;;;;;;;;;;;;;;;8.22;48.55;102513.25;1790242;79;20210;-77
2021/03/29 07:10:38;;;;;;;;;;;;;;;8.25;48.63;102498.94;1790148;80;20998;-74
2021/03/29 07:13:08;;;;;;;;;;;;;;;8.34;48.29;102503.03;1790916;80;20320;-76
2021/03/29 07:15:36;;;;;;;;;;;;;;;8.45;48.50;102515.25;1790464;80;21267;-80
2021/03/29 07:18:06;;;;;;;;;;;;;;;8.52;47.27;102489.58;1790115;79;20294;-77
2021/03/29 07:20:35;;;;;;;;;;;;;;;8.57;47.35;102505.84;1790766;79;20588;-78
2021/03/29 07:23:05;;;;;;;;;;;;;;;8.66;46.82;102495.66;1790213;79;20701;-78
2021/03/29 07:25:36;;;;;;;;;;;;;;;8.69;47.28;102483.92;1789967;80;20321;-79
2021/03/29 07:28:15;;;;;;;;;;;;;;;8.79;46.39;102473.27;1765263;80;21216;-77
2021/03/29 07:30:48;;;;;;;;;;;;;;;8.86;46.33;102490.77;1782888;79;20560;-78
2021/03/29 07:33:20;;;;;;;;;;;;;;;8.88;45.80;102479.45;1780437;80;20282;-80
2021/03/29 07:35:55;;;;;;;;;;;;;;;8.95;45.76;102484.01;1780499;80;20305;-80
2021/03/29 07:38:24;;;;;;;;;;;;;;;9.06;45.94;102465.56;1780352;80;20258;-80
2021/03/29 07:40:56;;;;;;;;;;;;;;;9.15;45.35;102476.48;1780787;80;21261;-75
2021/03/29 07:43:32;;;;;;;;;;;;;;;9.20;44.77;102447.83;1782019;80;20163;-76
2021/03/29 07:46:04;;;;;;;;;;;;;;;9.30;45.24;102463.48;1781288;80;20326;-78
2021/03/29 07:48:42;;;;;;;;;;;;;;;9.39;44.85;102454.97;1777026;80;20309;-79
2021/03/29 07:51:22;;;;;;;;;;;;;;;9.46;44.51;102475.91;1770346;80;20258;-80
2021/03/29 07:53:52;;;;;;;;;;;;;;;9.53;44.25;102461.00;1766155;80;21355;-78
2021/03/29 07:56:37;;;;;;;;;;;;;;;9.56;44.59;102467.37;1765688;81;20281;-76
2021/03/29 07:59:06;;;;;;;;;;;;;;;9.53;44.17;102463.15;1778257;80;20258;-78
2021/03/29 08:01:59;;;;;;;;;;;;;;;9.55;44.67;102473.45;1782265;80;20316;-77
2021/03/29 08:04:59;;;;;;;;;;;;;;;9.58;44.37;102444.84;1781582;80;20261;-79
2021/03/29 08:07:38;;;;;;;;;;;;;;;9.68;44.32;102451.41;1782395;80;21191;-78
2021/03/29 08:10:09;;;;;;;;;;;;;;;9.83;44.70;102446.14;1782485;80;20178;-78
2021/03/29 08:12:55;;;;;;;;;;;;;;;9.96;44.91;102453.45;1782331;80;20579;-80
2021/03/29 08:16:04;;;;;;;;;;;;;;;10.10;43.40;102456.86;1783061;80;20285;-80
2021/03/29 08:19:07;;;;;;;;;;;;;;;10.07;44.30;102453.93;1782130;80;20436;-78
2021/03/29 08:21:58;;;;;;;;;;;;;;;10.11;44.11;102472.35;1782335;80;20237;-79
2021/03/29 08:24:34;;;;;;;;;;;;;;;10.13;44.54;102479.24;1782222;80;20146;-82
2021/03/29 08:27:10;;;;;;;;;;;;;;;10.20;44.70;102457.41;1782481;80;20250;-79
2021/03/29 08:29:42;;;;;;;;;;;;;;;10.27;44.26;102453.26;1784654;78;20307;-79
2021/03/29 08:32:31;;;;;;;;;;;;;;;10.22;44.62;102457.74;1793252;80;20296;-77
2021/03/29 08:35:13;;;;;;;;;;;;;;;10.20;44.68;102463.45;1793345;80;20186;-76
2021/03/29 08:37:44;;;;;;;;;;;;;;;10.26;44.70;102450.70;1793004;80;20340;-77
2021/03/29 08:40:20;;;;;;;;;;;;;;;10.34;45.23;102442.20;1793000;80;20316;-78
2021/03/29 08:42:54;;;;;;;;;;;;;;;10.31;44.53;102449.63;1794274;80;20244;-77
2021/03/29 08:45:27;;;;;;;;;;;;;;;10.20;45.02;102451.78;1794604;80;20401;-77
2021/03/29 08:48:02;;;;;;;;;;;;;;;10.26;45.03;102441.62;1793247;80;21182;-80
2021/03/29 08:50:35;;;;;;;;;;;;;;;10.30;45.34;102441.47;1793199;80;20702;-79
2021/03/29 08:53:07;;;;;;;;;;;;;;;10.33;45.49;102424.48;1792984;80;20324;-78
2021/03/29 08:55:37;;;;;;;;;;;;;;;10.35;45.44;102430.90;1793005;80;20332;-78
2021/03/29 08:58:08;;;;;;;;;;;;;;;10.44;46.26;102433.15;1793270;80;20643;-76
2021/03/29 09:00:44;;;;;;;;;;;;;;;10.63;45.52;102421.16;1792396;79;21355;-79
2021/03/29 09:03:17;;;;;;;;;;;;;;;10.66;44.63;102423.64;1793325;80;20469;-78
2021/03/29 09:05:46;;;;;;;;;;;;;;;10.69;45.27;102431.80;1793190;80;20287;-81
2021/03/29 09:08:16;;;;;;;;;;;;;;;10.82;45.10;102436.87;1793267;80;20750;-80
2021/03/29 09:10:47;;;;;;;;;;;;;;;10.93;44.83;102429.08;1793418;80;20256;-76
2021/03/29 09:13:22;;;;;;;;;;;;;;;10.94;44.85;102435.98;1792947;80;22194;-79
2021/03/29 09:16:01;;;;;;;;;;;;;;;10.97;44.68;102444.09;1793389;80;20272;-79
2021/03/29 09:18:59;;;;;;;;;;;;;;;11.04;45.50;102441.66;1775382;80;20314;-76
2021/03/29 09:21:29;;;;;;;;;;;;;;;11.02;45.50;102439.55;1793165;80;20292;-78
2021/03/29 09:24:19;;;;;;;;;;;;;;;11.03;45.45;102437.36;1793063;80;21023;-79
2021/03/29 09:27:10;;;;;;;;;;;;;;;11.04;45.64;102442.95;1793313;80;22047;-76
2021/03/29 09:29:35;;;;;;;;;;;;;;;11.18;45.99;102437.19;1793142;78;20252;-80
2021/03/29 09:32:14;;;;;;;;;;;;;;;11.47;45.80;102442.89;1788051;79;20265;-81
2021/03/29 09:34:50;;;;;;;;;;;;;;;11.58;44.99;102424.26;1790758;79;20584;-78
2021/03/29 09:37:24;;;;;;;;;;;;;;;11.45;45.78;102421.78;1784755;79;20594;-81
2021/03/29 09:39:59;;;;;;;;;;;;;;;11.32;45.45;102439.64;1801176;79;21194;-80
2021/03/29 09:42:47;;;;;;;;;;;;;;;11.32;44.93;102437.48;1801051;79;20205;-78
2021/03/29 09:45:22;;;;;;;;;;;;;;;11.26;45.09;102446.39;1800588;79;20335;-77
2021/03/29 09:48:08;;;;;;;;;;;;;;;11.23;45.26;102439.16;1800653;79;20280;-76
2021/03/29 09:50:39;;;;;;;;;;;;;;;11.42;44.67;102424.02;1799898;79;20292;-79
2021/03/29 09:53:18;;;;;;;;;;;;;;;11.37;44.62;102451.13;1800087;79;21134;-76
2021/03/29 09:55:55;;;;;;;;;;;;;;;11.32;45.26;102463.48;1799795;79;20248;-76
2021/03/29 09:58:29;;;;;;;;;;;;;;;11.34;45.12;102448.20;1799999;79;20593;-77
2021/03/29 10:01:01;;;;;;;;;;;;;;;11.33;44.93;102462.55;1800080;79;20300;-78
2021/03/29 10:03:31;;;;;;;;;;;;;;;11.26;45.01;102455.93;1796358;79;20609;-77
2021/03/29 10:05:58;;;;;;;;;;;;;;;11.29;44.58;102465.75;1800060;79;21190;-78
2021/03/29 10:08:32;;;;;;;;;;;;;;;11.45;45.35;102456.42;1800170;79;20290;-81
2021/03/29 10:11:05;;;;;;;;;;;;;;;11.62;44.61;102449.20;1800473;79;20221;-78
2021/03/29 10:13:38;;;;;;;;;;;;;;;11.57;44.57;102444.21;1800094;79;20291;-78
2021/03/29 10:16:25;;;;;;;;;;;;;;;11.46;45.30;102451.59;1800302;79;20315;-79
2021/03/29 10:19:08;;;;;;;;;;;;;;;11.33;45.72;102443.05;1796645;79;21094;-79
2021/03/29 10:21:59;;;;;;;;;;;;;;;11.32;44.83;102434.44;1799929;79;20311;-79
2021/03/29 10:24:28;;;;;;;;;;;;;;;11.41;44.90;102450.09;1800450;79;20740;-79
2021/03/29 10:27:01;;;;;;;;;;;;;;;11.65;44.81;102460.33;1800966;79;20327;-78
2021/03/29 10:29:42;;;;;;;;;;;;;;;11.71;44.08;102450.14;1801165;79;20260;-78
2021/03/29 10:32:14;;;;;;;;;;;;;;;11.72;44.39;102452.30;1801939;79;21225;-76
2021/03/29 10:34:42;;;;;;;;;;;;;;;11.64;44.80;102472.11;1792479;78;20362;-75
2021/03/29 10:37:19;;;;;;;;;;;;;;;11.44;44.95;102456.47;1780579;79;20304;-78
2021/03/29 10:39:49;;;;;;;;;;;;;;;11.28;45.35;102454.95;1779876;80;20249;-78
2021/03/29 10:42:18;;;;;;;;;;;;;;;11.08;46.01;102455.75;1779878;79;20269;-78
2021/03/29 10:44:46;;;;;;;;;;;;;;;11.03;46.38;102471.13;1780096;79;21197;-77
2021/03/29 10:47:14;;;;;;;;;;;;;;;10.99;46.17;102453.52;1779938;80;20175;-78
2021/03/29 10:49:42;;;;;;;;;;;;;;;11.01;46.84;102445.20;1780080;80;20280;-78
2021/03/29 10:52:10;;;;;;;;;;;;;;;11.05;46.88;102436.83;1780262;80;20273;-78
2021/03/29 10:54:40;;;;;;;;;;;;;;;11.17;46.73;102458.91;1762666;80;20230;-79
2021/03/29 10:57:08;;;;;;;;;;;;;;;11.23;46.36;102450.37;1778994;80;22367;-77
2021/03/29 10:59:36;;;;;;;;;;;;;;;11.15;46.69;102462.84;1778221;80;20261;-78
2021/03/29 11:02:04;;;;;;;;;;;;;;;11.03;46.31;102430.41;1778160;80;20181;-79
2021/03/29 11:04:33;;;;;;;;;;;;;;;10.85;47.30;102463.58;1777977;80;20626;-79
2021/03/29 11:07:02;;;;;;;;;;;;;;;10.82;47.00;102475.83;1777965;80;20567;-78
2021/03/29 11:09:34;;;;;;;;;;;;;;;10.72;46.84;102468.03;1777305;80;21187;-77
2021/03/29 11:12:02;;;;;;;;;;;;;;;10.63;47.08;102465.30;1777604;80;20270;-79
2021/03/29 11:14:30;;;;;;;;;;;;;;;10.55;47.58;102469.95;1777507;80;20194;-80
2021/03/29 11:16:59;;;;;;;;;;;;;;;10.51;47.99;102470.52;1777146;80;20571;-82
2021/03/29 11:19:29;;;;;;;;;;;;;;;10.46;48.24;102469.00;1777004;80;20262;-78
2021/03/29 11:21:57;;;;;;;;;;;;;;;10.46;48.26;102463.80;1777300;80;21633;-77
2021/03/29 11:24:26;;;;;;;;;;;;;;;10.42;48.72;102462.22;1777038;80;20640;-77
2021/03/29 11:26:55;;;;;;;;;;;;;;;10.33;49.05;102467.75;1776934;79;20602;-80
2021/03/29 11:29:22;;;;;;;;;;;;;;;10.27;48.44;102464.08;1777088;80;20579;-80
2021/03/29 11:31:53;;;;;;;;;;;;;;;10.15;48.89;102467.13;1778405;80;20307;-77
2021/03/29 11:34:21;;;;;;;;;;;;;;;10.14;48.96;102464.12;1778223;80;21196;-77
2021/03/29 11:36:49;;;;;;;;;;;;;;;10.15;49.09;102464.52;1778128;80;20333;-78
2021/03/29 11:39:18;;;;;;;;;;;;;;;10.26;48.55;102462.38;1778161;80;20198;-77
2021/03/29 11:41:47;;;;;;;;;;;;;;;10.39;48.65;102462.33;1777789;80;20289;-79
2021/03/29 11:44:16;;;;;;;;;;;;;;;10.52;48.70;102464.42;1778004;80;20289;-77
2021/03/29 11:46:44;;;;;;;;;;;;;;;10.55;48.24;102468.66;1777798;80;21149;-79
2021/03/29 11:49:12;;;;;;;;;;;;;;;10.45;48.42;102467.30;1777691;80;20265;-78
2021/03/29 11:51:40;;;;;;;;;;;;;;;10.34;48.74;102465.55;1777130;79;20285;-78
2021/03/29 11:54:10;;;;;;;;;;;;;;;10.26;48.36;102475.34;1776267;80;20305;-76
2021/03/29 11:56:38;;;;;;;;;;;;;;;10.18;48.75;102469.12;1776449;80;20282;-81
2021/03/29 11:59:06;;;;;;;;;;;;;;;10.09;48.87;102470.27;1776915;80;22123;-77
2021/03/29 12:01:42;;;;;;;;;;;;;;;10.10;49.12;102473.28;1782374;79;20767;-78
2021/03/29 12:04:14;;;;;;;;;;;;;;;10.16;49.32;102468.34;1777711;79;20301;-79
2021/03/29 12:06:49;;;;;;;;;;;;;;;10.25;48.79;102469.31;1777214;80;20932;-78
2021/03/29 12:12:12;;;;;;;;;;;;;;;10.59;48.56;102472.36;1778227;79;21363;-80
2021/03/29 12:14:21;;;;;;;;;;;;;;;10.62;47.83;102476.13;1768317;80;20278;-77
2021/03/29 12:16:52;;;;;;;;;;;;;;;10.63;47.28;102458.81;1777887;80;20571;-81
2021/03/29 12:19:19;;;;;;;;;;;;;;;10.57;47.55;102468.98;1777680;80;20290;-82
2021/03/29 12:21:54;;;;;;;;;;;;;;;10.55;47.91;102466.91;1778314;79;20250;-75
2021/03/29 12:24:23;;;;;;;;;;;;;;;10.55;48.04;102464.31;1777632;80;21372;-77
2021/03/29 12:26:51;;;;;;;;;;;;;;;10.53;48.08;102458.31;1777977;80;20663;-79
2021/03/29 12:29:35;;;;;;;;;;;;;;;10.53;48.13;102456.16;1777652;80;20250;-79
2021/03/29 12:31:51;;;;;;;;;;;;;;;10.53;48.19;102462.20;1769142;80;20282;-77
2021/03/29 12:34:21;;;;;;;;;;;;;;;10.55;47.99;102465.61;1766166;80;20319;-82
2021/03/29 12:36:53;;;;;;;;;;;;;;;10.59;47.61;102459.86;1766056;80;21189;-82
2021/03/29 12:39:32;;;;;;;;;;;;;;;10.69;47.64;102446.89;1765574;80;20230;-80
2021/03/29 12:41:59;;;;;;;;;;;;;;;10.83;47.52;102448.97;1765512;81;20254;-79
2021/03/29 12:44:27;;;;;;;;;;;;;;;10.93;47.02;102468.49;1765815;81;20946;-77
2021/03/29 12:46:58;;;;;;;;;;;;;;;10.93;47.21;102462.85;1765524;80;20279;-79
2021/03/29 12:49:24;;;;;;;;;;;;;;;10.88;47.06;102448.36;1765630;81;21205;-79
2021/03/29 12:51:59;;;;;;;;;;;;;;;10.80;46.99;102458.18;1766235;81;20230;-79
2021/03/29 12:54:31;;;;;;;;;;;;;;;10.71;47.61;102459.83;1766370;81;20309;-80
2021/03/29 12:56:59;;;;;;;;;;;;;;;10.68;48.22;102457.35;1765975;81;20897;-78
2021/03/29 12:59:29;;;;;;;;;;;;;;;10.69;48.45;102458.58;1765926;80;20297;-79
2021/03/29 13:01:57;;;;;;;;;;;;;;;10.71;48.49;102461.13;1765994;80;21350;-82
2021/03/29 13:04:30;;;;;;;;;;;;;;;10.71;48.26;102455.94;1765821;80;20603;-79
2021/03/29 13:12:21;;;;;;;;;;;;;;;10.77;48.75;102447.46;1765735;81;20269;-79
2021/03/29 13:15:08;;;;;;;;;;;;;;;10.78;49.34;102440.08;1765049;81;20242;-75